Time;durP1;ratioP1;P1;durP2;ratioP2;P2;SDS_P1;SDS_P2;PMS_P1;PMS_P2;Temp;Humidity;BMP_temperature;BMP_pressure;BME280_temperature;BME280_humidity;BME280_pressure;Samples;Min_cycle;Max_cycle;Signal;HPM_P1;HPM_P2
2023/01/17 00:01:53;;;;;;;1.93;1.03;;;2.30;99.90;;;;;;4971756;28;20436;-74
2023/01/17 00:09:53;;;;;;;0.73;0.60;;;2.20;99.90;;;;;;4971123;28;20429;-74
2023/01/17 00:12:19;;;;;;;1.40;0.67;;;2.20;99.90;;;;;;4971817;28;20950;-74
2023/01/17 00:14:46;;;;;;;1.47;1.10;;;2.10;99.90;;;;;;4971791;28;20424;-74
2023/01/17 00:17:12;;;;;;;1.20;1.03;;;2.20;99.90;;;;;;4954644;28;20548;-74
2023/01/17 01:34:07;;;;;;;1.30;0.87;;;2.20;99.90;;;;;;4975454;28;20475;-74
2023/01/17 01:36:32;;;;;;;4.30;1.17;;;2.10;99.90;;;;;;4975051;28;20870;-74
2023/01/17 01:38:58;;;;;;;2.53;0.97;;;2.10;99.90;;;;;;4975371;28;20192;-74
2023/01/17 01:41:23;;;;;;;2.13;0.90;;;2.10;99.90;;;;;;4957801;28;20546;-74
2023/01/17 01:43:51;;;;;;;2.37;1.07;;;2.10;99.90;;;;;;4975058;28;20235;-74
2023/01/17 01:46:40;;;;;;;1.83;0.87;;;2.10;99.90;;;;;;4975357;28;20650;-74
2023/01/17 01:49:23;;;;;;;1.00;0.70;;;2.10;99.90;;;;;;4975381;28;20487;-74
2023/01/17 01:51:55;;;;;;;2.07;1.10;;;2.10;99.90;;;;;;4974840;28;21040;-74
2023/01/17 01:54:41;;;;;;;1.30;0.80;;;2.20;99.90;;;;;;4975311;28;20424;-74
2023/01/17 01:57:11;;;;;;;1.97;1.47;;;2.20;99.90;;;;;;4975019;28;21043;-75
2023/01/17 01:59:43;;;;;;;2.33;1.40;;;2.20;99.90;;;;;;4974924;28;20966;-74
2023/01/17 03:32:46;;;;;;;2.20;0.90;;;2.40;99.90;;;;;;5237934;22;21039;-74
2023/01/17 03:35:11;;;;;;;1.10;0.87;;;2.50;99.90;;;;;;5019520;28;20468;-75
2023/01/17 03:37:37;;;;;;;4.13;0.60;;;2.50;99.90;;;;;;5012577;28;20265;-75
2023/01/17 03:40:03;;;;;;;0.90;0.77;;;2.50;99.90;;;;;;5012277;28;20184;-76
2023/01/17 03:42:28;;;;;;;0.90;0.73;;;2.40;99.90;;;;;;5011725;28;20190;-74
2023/01/17 03:44:54;;;;;;;2.30;0.60;;;2.40;99.90;;;;;;5012118;28;20309;-74
2023/01/17 03:47:19;;;;;;;0.80;0.57;;;2.30;99.90;;;;;;5012064;28;20306;-75
2023/01/17 03:49:45;;;;;;;1.93;0.73;;;2.20;99.90;;;;;;5012349;28;20184;-75
2023/01/17 03:52:10;;;;;;;1.07;0.70;;;2.10;99.90;;;;;;5011530;28;20214;-75
2023/01/17 03:54:36;;;;;;;1.83;0.60;;;2.00;99.90;;;;;;5012209;28;20180;-75
2023/01/17 03:57:01;;;;;;;0.87;0.77;;;1.90;99.90;;;;;;5011692;28;20292;-75
2023/01/17 03:59:27;;;;;;;2.10;0.60;;;1.90;99.90;;;;;;5011761;28;20176;-75
2023/01/17 04:01:52;;;;;;;0.70;0.50;;;1.80;99.90;;;;;;5011160;28;20220;-75
2023/01/17 04:04:18;;;;;;;0.80;0.70;;;1.70;99.90;;;;;;5011687;28;20175;-75
2023/01/17 04:06:43;;;;;;;1.33;0.80;;;1.70;99.90;;;;;;5012059;28;20208;-75
2023/01/17 04:09:09;;;;;;;0.67;0.60;;;1.70;99.90;;;;;;5012006;28;20188;-76
2023/01/17 04:11:34;;;;;;;1.10;0.80;;;1.70;99.90;;;;;;5012113;28;20221;-74
2023/01/17 04:14:00;;;;;;;1.77;0.60;;;1.70;99.90;;;;;;5013065;28;20253;-75
2023/01/17 04:16:28;;;;;;;0.80;0.70;;;1.60;99.90;;;;;;4995514;28;20206;-75
2023/01/17 04:18:54;;;;;;;1.10;0.70;;;1.70;99.90;;;;;;5012452;28;20188;-75
2023/01/17 04:21:20;;;;;;;1.03;0.60;;;1.60;99.90;;;;;;5011910;28;20409;-73
2023/01/17 04:23:46;;;;;;;1.60;0.73;;;1.60;99.90;;;;;;5012988;28;20526;-75
2023/01/17 04:26:12;;;;;;;1.77;0.80;;;1.60;99.90;;;;;;5012269;28;20177;-76
2023/01/17 04:28:37;;;;;;;2.20;0.80;;;1.60;99.90;;;;;;5011714;28;20410;-75
2023/01/17 04:31:03;;;;;;;0.90;0.80;;;1.60;99.90;;;;;;5011455;28;20200;-74
2023/01/17 04:33:29;;;;;;;0.70;0.60;;;1.60;99.90;;;;;;5011893;28;20181;-75
2023/01/17 04:35:54;;;;;;;2.23;0.90;;;1.60;99.90;;;;;;5011551;28;20249;-75
2023/01/17 04:38:21;;;;;;;2.23;0.83;;;1.50;99.90;;;;;;5011631;28;20184;-75
2023/01/17 04:40:47;;;;;;;1.63;0.90;;;1.50;99.90;;;;;;5011394;28;20466;-75
2023/01/17 04:43:13;;;;;;;2.67;1.00;;;1.60;99.90;;;;;;5011055;28;20425;-75
2023/01/17 04:45:38;;;;;;;1.37;0.70;;;1.60;99.90;;;;;;5011422;28;20411;-75
2023/01/17 04:48:05;;;;;;;1.07;0.97;;;1.50;99.90;;;;;;5011302;28;20605;-74
2023/01/17 04:50:31;;;;;;;1.40;1.03;;;1.50;99.90;;;;;;5011245;28;20212;-75
2023/01/17 04:52:58;;;;;;;0.77;0.70;;;1.50;99.90;;;;;;5011119;28;20435;-75
2023/01/17 04:55:23;;;;;;;1.93;1.00;;;1.60;99.90;;;;;;5011004;28;20471;-74
2023/01/17 04:57:49;;;;;;;0.80;0.80;;;1.60;99.90;;;;;;5011395;28;20424;-74
2023/01/17 05:00:15;;;;;;;1.30;0.90;;;1.60;99.90;;;;;;5010943;28;20170;-76
2023/01/17 05:02:40;;;;;;;1.10;0.80;;;1.70;99.90;;;;;;5011005;28;20207;-76
2023/01/17 05:05:06;;;;;;;2.20;1.67;;;1.70;99.90;;;;;;5011058;28;20416;-74
2023/01/17 05:07:32;;;;;;;1.20;1.10;;;1.80;99.90;;;;;;5012319;28;20261;-74
2023/01/17 05:09:59;;;;;;;4.87;1.37;;;1.80;99.90;;;;;;5015117;28;20506;-75
2023/01/17 05:12:28;;;;;;;1.10;1.00;;;1.80;99.90;;;;;;5014674;28;20561;-76
2023/01/17 05:14:53;;;;;;;1.10;0.80;;;1.80;99.90;;;;;;5015138;28;20412;-75
2023/01/17 05:17:19;;;;;;;1.67;1.13;;;1.90;99.90;;;;;;5014577;28;20971;-75
2023/01/17 05:19:45;;;;;;;1.27;1.17;;;1.90;99.90;;;;;;5015008;28;20169;-75
2023/01/17 05:22:14;;;;;;;2.23;1.27;;;1.90;99.90;;;;;;5014276;28;20609;-75
2023/01/17 05:24:41;;;;;;;3.30;0.90;;;1.80;99.90;;;;;;5014876;28;20275;-75
2023/01/17 05:27:07;;;;;;;1.10;0.70;;;1.80;99.90;;;;;;5014430;28;21018;-75
2023/01/17 05:29:33;;;;;;;1.20;0.80;;;1.70;99.90;;;;;;5014702;28;20503;-75
2023/01/17 05:31:58;;;;;;;4.00;1.13;;;1.70;99.90;;;;;;5014010;28;20227;-75
2023/01/17 05:34:24;;;;;;;2.53;0.83;;;1.70;99.90;;;;;;5014547;28;20184;-75
2023/01/17 05:36:49;;;;;;;2.77;0.87;;;1.70;99.90;;;;;;5014364;28;20625;-75
2023/01/17 05:39:15;;;;;;;1.47;0.90;;;1.60;99.90;;;;;;5014433;28;20247;-76
2023/01/17 05:41:40;;;;;;;1.10;1.00;;;1.60;99.90;;;;;;5014135;28;20200;-75
2023/01/17 05:44:06;;;;;;;2.40;0.80;;;1.60;99.90;;;;;;5014298;28;20173;-75
2023/01/17 05:46:31;;;;;;;2.50;1.27;;;1.50;99.90;;;;;;5014255;28;20184;-75
2023/01/17 05:48:57;;;;;;;2.03;1.10;;;1.50;99.90;;;;;;4996572;28;20186;-74
2023/01/17 05:51:23;;;;;;;1.43;0.90;;;1.50;99.90;;;;;;5013614;28;20221;-75
2023/01/17 05:53:48;;;;;;;3.00;0.70;;;1.50;99.90;;;;;;5014312;28;20458;-75
2023/01/17 05:56:14;;;;;;;2.80;1.07;;;1.50;99.90;;;;;;5013988;28;20200;-75
2023/01/17 05:58:40;;;;;;;2.07;1.20;;;1.60;99.90;;;;;;5014224;28;20270;-74
2023/01/17 06:01:05;;;;;;;1.67;1.30;;;1.60;99.90;;;;;;5013163;28;20205;-73
2023/01/17 06:03:31;;;;;;;2.40;2.10;;;1.60;99.90;;;;;;5013960;28;20188;-75
2023/01/17 06:05:56;;;;;;;5.30;3.07;;;1.50;99.90;;;;;;5013767;28;20192;-75
2023/01/17 06:08:22;;;;;;;3.00;2.30;;;1.40;99.90;;;;;;5013841;28;20725;-74
2023/01/17 06:10:48;;;;;;;5.37;1.70;;;1.30;99.90;;;;;;5005592;28;20680;-75
2023/01/17 06:13:15;;;;;;;4.83;3.90;;;1.30;99.90;;;;;;4994470;28;20531;-75
2023/01/17 06:15:41;;;;;;;6.00;3.33;;;1.20;99.90;;;;;;4992775;28;20443;-74
2023/01/17 06:18:09;;;;;;;6.40;2.70;;;1.10;99.90;;;;;;4993738;28;20481;-75
2023/01/17 06:20:34;;;;;;;6.67;1.77;;;1.00;99.90;;;;;;4994119;28;20265;-73
2023/01/17 06:23:06;;;;;;;3.03;1.97;;;1.00;99.90;;;;;;4993991;28;20531;-75
2023/01/17 06:25:43;;;;;;;2.63;2.40;;;0.90;99.90;;;;;;4993947;28;20168;-73
2023/01/17 06:28:10;;;;;;;7.20;1.93;;;0.90;99.90;;;;;;4994019;28;20413;-74
2023/01/17 06:30:36;;;;;;;3.50;1.67;;;0.80;99.90;;;;;;4993780;28;20873;-73
2023/01/17 06:33:02;;;;;;;2.73;1.27;;;0.70;99.90;;;;;;4992872;28;20435;-74
2023/01/17 06:35:28;;;;;;;10.00;1.60;;;0.70;99.90;;;;;;4993744;28;20177;-75
2023/01/17 06:37:56;;;;;;;3.87;1.43;;;0.70;99.90;;;;;;4993860;28;20530;-75
2023/01/17 06:40:23;;;;;;;7.23;3.90;;;0.60;99.90;;;;;;4993623;28;20199;-75
2023/01/17 06:42:49;;;;;;;8.53;4.40;;;0.50;99.90;;;;;;4993380;28;20954;-74
2023/01/17 06:45:15;;;;;;;2.87;1.93;;;0.50;99.90;;;;;;4993532;28;20415;-74
2023/01/17 06:47:41;;;;;;;2.47;1.47;;;0.50;99.90;;;;;;4993672;28;20724;-74
2023/01/17 06:50:09;;;;;;;1.47;1.10;;;0.40;99.90;;;;;;4993391;28;20423;-75
2023/01/17 06:52:35;;;;;;;2.93;1.53;;;0.40;99.90;;;;;;4992961;28;20498;-74
2023/01/17 06:55:01;;;;;;;3.00;0.90;;;0.30;99.90;;;;;;4993179;28;20425;-74
2023/01/17 06:57:26;;;;;;;2.47;1.30;;;0.40;99.90;;;;;;4993248;28;20215;-74
2023/01/17 06:59:52;;;;;;;3.03;1.53;;;0.50;99.90;;;;;;4976097;28;20177;-72
2023/01/17 07:02:17;;;;;;;1.53;1.10;;;0.60;99.90;;;;;;4992967;28;20197;-74
2023/01/17 07:04:43;;;;;;;5.37;1.30;;;0.60;99.90;;;;;;4993340;28;20211;-73
2023/01/17 07:07:08;;;;;;;1.50;1.00;;;0.60;99.90;;;;;;4992863;28;20180;-73
2023/01/17 07:09:34;;;;;;;8.77;3.30;;;0.70;99.90;;;;;;4993091;28;20178;-72
2023/01/17 07:12:00;;;;;;;3.00;1.80;;;0.60;99.90;;;;;;4992773;28;20772;-73
2023/01/17 07:14:27;;;;;;;4.10;1.33;;;0.60;99.90;;;;;;4992714;28;20173;-73
2023/01/17 07:16:53;;;;;;;5.20;1.50;;;0.70;99.90;;;;;;4992908;28;20470;-73
2023/01/17 07:19:19;;;;;;;2.53;1.23;;;0.70;99.90;;;;;;4992690;28;20426;-72
2023/01/17 07:21:45;;;;;;;2.10;0.93;;;0.70;99.90;;;;;;4992440;28;20813;-73
2023/01/17 07:24:10;;;;;;;2.67;1.40;;;0.70;99.90;;;;;;4992583;28;20547;-73
2023/01/17 07:26:39;;;;;;;2.63;1.27;;;0.70;99.90;;;;;;4992802;28;20234;-73
2023/01/17 07:29:05;;;;;;;9.10;5.57;;;0.70;99.90;;;;;;4975284;28;20192;-73
2023/01/17 07:31:34;;;;;;;4.57;2.50;;;0.80;99.90;;;;;;4991507;28;20471;-74
2023/01/17 07:34:00;;;;;;;3.70;1.30;;;0.80;99.90;;;;;;4992655;28;20171;-73
2023/01/17 07:36:25;;;;;;;3.10;1.33;;;0.80;99.90;;;;;;4992306;28;20466;-74
2023/01/17 07:38:52;;;;;;;3.03;1.43;;;0.90;99.90;;;;;;4992561;28;20428;-73
2023/01/17 07:41:17;;;;;;;1.97;1.70;;;0.90;99.90;;;;;;4991856;28;20705;-72
2023/01/17 07:43:43;;;;;;;3.20;1.30;;;0.90;99.90;;;;;;4991899;28;20417;-72
2023/01/17 07:46:08;;;;;;;2.93;1.60;;;1.00;99.90;;;;;;4992268;28;20186;-72
2023/01/17 07:48:34;;;;;;;3.70;1.70;;;1.00;99.90;;;;;;4992247;28;20679;-72
2023/01/17 07:50:59;;;;;;;1.77;1.60;;;1.00;99.90;;;;;;4992412;28;20621;-72
2023/01/17 07:53:27;;;;;;;3.87;1.97;;;1.00;99.90;;;;;;4992040;28;20529;-72
2023/01/17 07:55:53;;;;;;;5.20;2.27;;;1.00;99.90;;;;;;4992067;28;20210;-73
2023/01/17 07:58:20;;;;;;;3.77;1.70;;;1.00;99.90;;;;;;4991972;28;20423;-72
2023/01/17 08:00:46;;;;;;;7.03;2.53;;;1.00;99.90;;;;;;4992026;28;20416;-73
2023/01/17 08:03:14;;;;;;;5.90;2.17;;;1.00;99.90;;;;;;4991785;28;20390;-72
2023/01/17 08:05:41;;;;;;;3.40;2.47;;;1.00;99.90;;;;;;4974513;28;20181;-72
2023/01/17 08:08:06;;;;;;;5.23;1.53;;;1.00;99.90;;;;;;4992251;28;20419;-71
2023/01/17 08:10:32;;;;;;;4.00;1.50;;;1.10;99.90;;;;;;4992077;28;20414;-73
2023/01/17 08:12:57;;;;;;;2.70;1.30;;;1.00;99.90;;;;;;4991826;28;20201;-72
2023/01/17 08:15:25;;;;;;;2.10;1.70;;;1.10;99.90;;;;;;4991820;28;20777;-71
2023/01/17 08:17:56;;;;;;;3.40;2.10;;;1.10;99.90;;;;;;4991973;28;20211;-73
2023/01/17 08:20:22;;;;;;;4.13;2.03;;;1.20;99.90;;;;;;4991750;28;20456;-73
2023/01/17 08:22:47;;;;;;;2.43;2.23;;;1.20;99.90;;;;;;4991598;28;20462;-72
2023/01/17 08:25:13;;;;;;;3.40;1.80;;;1.40;99.90;;;;;;4991734;28;20177;-73
2023/01/17 08:27:39;;;;;;;2.43;1.40;;;1.60;99.90;;;;;;4992227;28;20185;-72
2023/01/17 08:30:06;;;;;;;7.40;2.03;;;1.80;99.90;;;;;;4991796;28;20193;-72
2023/01/17 08:32:32;;;;;;;1.87;1.70;;;2.00;99.90;;;;;;4991496;28;20224;-72
2023/01/17 08:34:57;;;;;;;4.80;1.70;;;2.10;99.90;;;;;;4991907;28;20913;-73
2023/01/17 08:37:23;;;;;;;3.30;1.60;;;2.30;99.90;;;;;;4991631;28;20459;-73
2023/01/17 08:39:49;;;;;;;2.00;1.70;;;2.50;99.90;;;;;;4991913;28;20171;-72
2023/01/17 08:42:14;;;;;;;1.57;1.47;;;2.60;99.90;;;;;;4991857;28;20206;-72
2023/01/17 08:44:40;;;;;;;3.40;1.60;;;2.80;99.90;;;;;;4995724;28;20662;-72
2023/01/17 08:47:05;;;;;;;1.50;1.00;;;2.90;99.90;;;;;;4995543;28;20214;-73
2023/01/17 08:49:31;;;;;;;1.77;1.40;;;2.90;99.90;;;;;;4996056;28;20188;-73
2023/01/17 08:51:57;;;;;;;1.57;1.47;;;3.00;99.90;;;;;;4995791;28;20204;-73
2023/01/17 08:54:22;;;;;;;3.53;2.07;;;3.10;99.90;;;;;;4995647;28;20215;-73
2023/01/17 08:56:49;;;;;;;5.10;1.60;;;3.20;99.90;;;;;;4995667;28;20555;-73
2023/01/17 08:59:14;;;;;;;2.90;1.63;;;3.40;99.90;;;;;;4995608;28;20170;-73
2023/01/17 09:01:40;;;;;;;4.30;1.23;;;3.50;99.90;;;;;;4995170;28;20510;-73
2023/01/17 09:04:09;;;;;;;2.07;1.60;;;3.70;99.90;;;;;;4995583;28;20195;-73
2023/01/17 09:06:40;;;;;;;2.17;1.77;;;3.70;99.90;;;;;;4995492;28;20173;-73
2023/01/17 09:09:07;;;;;;;10.53;2.20;;;3.80;99.90;;;;;;4995613;28;20767;-71
2023/01/17 09:11:33;;;;;;;130.20;56.97;;;3.90;99.90;;;;;;4994892;28;20441;-73
2023/01/17 09:13:58;;;;;;;60.57;2.17;;;3.90;99.90;;;;;;4995446;28;20411;-73
2023/01/17 09:16:24;;;;;;;93.70;10.03;;;4.10;99.90;;;;;;4995171;28;20488;-72
2023/01/17 09:18:55;;;;;;;105.70;15.30;;;4.40;99.90;;;;;;4995320;28;20179;-73
2023/01/17 09:21:21;;;;;;;118.60;26.73;;;4.90;99.90;;;;;;4994726;28;20520;-74
2023/01/17 09:23:46;;;;;;;120.40;31.53;;;5.20;99.90;;;;;;4992207;28;20407;-73
2023/01/17 09:26:30;;;;;;;113.10;18.70;;;5.60;99.90;;;;;;4994621;28;20490;-71
2023/01/17 09:28:57;;;;;;;119.43;26.47;;;5.90;99.90;;;;;;4975021;28;20183;-72
2023/01/17 09:31:23;;;;;;;1386.80;698.77;;;6.30;99.90;;;;;;4974655;28;20512;-72
2023/01/17 09:33:50;;;;;;;90.50;8.30;;;6.70;99.90;;;;;;4975309;28;20514;-72
2023/01/17 09:36:15;;;;;;;172.63;27.17;;;7.10;99.90;;;;;;4975042;28;20454;-72
2023/01/17 09:38:41;;;;;;;22.97;2.60;;;7.40;99.90;;;;;;4974907;28;20477;-72
2023/01/17 09:41:26;;;;;;;23.07;2.20;;;7.70;99.90;;;;;;4974946;28;20207;-72
2023/01/17 09:44:27;;;;;;;37.30;2.30;;;8.00;99.90;;;;;;4975223;28;20174;-72
2023/01/17 09:47:01;;;;;;;27.83;2.13;;;8.30;99.90;;;;;;4975061;28;20416;-73
2023/01/17 09:49:42;;;;;;;4.03;1.87;;;8.50;99.90;;;;;;4974454;28;20427;-72
2023/01/17 09:52:12;;;;;;;5.40;2.80;;;8.60;99.90;;;;;;4973327;28;20482;-72
2023/01/17 09:54:40;;;;;;;1999.90;999.90;;;8.60;99.90;;;;;;4990278;28;20810;-74
2023/01/17 09:57:28;;;;;;;1999.90;999.90;;;8.60;99.90;;;;;;4993387;28;20457;-72
2023/01/17 10:00:32;;;;;;;1999.90;999.90;;;8.80;99.90;;;;;;4972179;28;20423;-73
2023/01/17 10:03:36;;;;;;;1999.90;999.90;;;9.10;99.90;;;;;;4943837;28;20964;-73
2023/01/17 10:06:25;;;;;;;1382.10;682.60;;;9.30;99.90;;;;;;4983662;28;20449;-72
2023/01/17 10:09:07;;;;;;;4.90;2.53;;;9.30;99.90;;;;;;4977368;28;20420;-73
2023/01/17 10:11:52;;;;;;;4.60;2.77;;;9.60;99.90;;;;;;4994096;28;20429;-72
2023/01/17 10:14:48;;;;;;;4.00;2.60;;;9.60;99.90;;;;;;4993842;28;20448;-73
2023/01/17 10:17:35;;;;;;;3.00;1.80;;;9.60;99.90;;;;;;4992904;28;20468;-73
2023/01/17 10:20:38;;;;;;;3.33;2.20;;;9.70;99.90;;;;;;4994085;28;20408;-72
2023/01/17 10:23:25;;;;;;;3.23;2.10;;;9.80;99.90;;;;;;4993556;28;20433;-72
2023/01/17 10:25:53;;;;;;;4.27;1.90;;;9.40;99.90;;;;;;4993852;28;20417;-73
2023/01/17 10:28:29;;;;;;;4.00;2.30;;;9.10;99.90;;;;;;4993348;28;20474;-73
2023/01/17 10:31:02;;;;;;;11.80;2.50;;;9.20;99.90;;;;;;4992853;28;20432;-73
2023/01/17 10:33:54;;;;;;;5.00;2.27;;;9.10;99.90;;;;;;4993791;28;20433;-73
2023/01/17 10:36:24;;;;;;;3.13;2.13;;;9.00;99.90;;;;;;4993576;28;20493;-73
2023/01/17 10:39:03;;;;;;;2.63;2.10;;;9.00;99.90;;;;;;4993555;28;20896;-72
2023/01/17 10:41:29;;;;;;;7.87;2.43;;;9.10;99.90;;;;;;4993424;28;20441;-74
2023/01/17 10:44:13;;;;;;;3.73;2.50;;;9.10;99.90;;;;;;4993715;28;20417;-72
2023/01/17 10:46:54;;;;;;;5.33;3.30;;;9.30;99.90;;;;;;4993319;28;20419;-73
2023/01/17 10:49:22;;;;;;;2.03;1.93;;;9.40;99.90;;;;;;4993067;28;20405;-73
2023/01/17 10:52:07;;;;;;;4.13;1.83;;;9.40;99.90;;;;;;4993202;28;20434;-73
2023/01/17 10:55:03;;;;;;;2.67;2.00;;;9.20;99.90;;;;;;4993472;28;20441;-73
2023/01/17 10:57:37;;;;;;;3.47;2.30;;;9.40;99.90;;;;;;4992778;28;20461;-72
2023/01/17 11:00:23;;;;;;;6.63;2.53;;;9.60;99.90;;;;;;4991820;28;20417;-72
2023/01/17 11:02:50;;;;;;;3.03;1.90;;;9.50;99.90;;;;;;4992990;28;20426;-72
2023/01/17 11:05:33;;;;;;;2.40;2.20;;;9.50;99.90;;;;;;4991988;28;20410;-72
2023/01/17 11:08:12;;;;;;;2.73;1.80;;;9.40;99.90;;;;;;5008166;28;20452;-72
2023/01/17 11:10:41;;;;;;;6.23;1.90;;;9.30;99.90;;;;;;5012558;28;20767;-73
2023/01/17 11:13:34;;;;;;;7.67;2.73;;;9.30;99.90;;;;;;5012124;28;20418;-72
2023/01/17 11:16:04;;;;;;;4.53;2.30;;;9.30;99.90;;;;;;5012306;28;20488;-73
2023/01/17 11:18:33;;;;;;;3.33;1.47;;;9.10;99.90;;;;;;5011896;28;20940;-72
2023/01/17 11:21:10;;;;;;;4.30;1.93;;;8.70;99.90;;;;;;5012295;28;20440;-72
2023/01/17 11:23:36;;;;;;;1.70;1.50;;;8.40;99.90;;;;;;5012453;28;20420;-72
2023/01/17 11:26:06;;;;;;;2.30;1.20;;;8.50;99.90;;;;;;5012742;28;20456;-72
2023/01/17 11:28:37;;;;;;;2.77;1.00;;;8.60;99.90;;;;;;5012123;28;20473;-72
2023/01/17 11:31:15;;;;;;;4.63;2.17;;;8.80;99.90;;;;;;5011887;28;20441;-72
2023/01/17 11:33:54;;;;;;;2.00;1.60;;;8.90;99.90;;;;;;5012259;28;20920;-72
2023/01/17 11:36:28;;;;;;;137.13;17.43;;;9.10;99.90;;;;;;5011704;28;20499;-72
2023/01/17 11:39:20;;;;;;;1.60;1.33;;;9.00;99.90;;;;;;4953363;28;20464;-72
2023/01/17 11:41:46;;;;;;;1.70;1.03;;;9.10;99.90;;;;;;4972787;28;20434;-72
2023/01/17 11:44:29;;;;;;;2.00;1.07;;;9.10;99.90;;;;;;4981362;28;20500;-72
2023/01/17 11:47:15;;;;;;;2.00;1.47;;;9.30;99.90;;;;;;5011379;28;20496;-72
2023/01/17 11:49:47;;;;;;;10.90;1.17;;;9.50;99.90;;;;;;4994079;28;20424;-72
2023/01/17 11:52:33;;;;;;;2.23;0.93;;;9.40;99.90;;;;;;5009076;28;20447;-72
2023/01/17 11:54:59;;;;;;;0.80;0.67;;;9.20;99.90;;;;;;5009001;28;20947;-72
2023/01/17 11:57:28;;;;;;;2.43;1.90;;;8.90;99.90;;;;;;4992075;28;20466;-73
2023/01/17 12:00:08;;;;;;;1.73;1.10;;;9.00;99.90;;;;;;4971401;28;20596;-73
2023/01/17 12:02:40;;;;;;;2.17;1.67;;;9.00;99.90;;;;;;4972414;28;20490;-73
2023/01/17 12:05:24;;;;;;;1.47;0.90;;;9.10;99.90;;;;;;4955499;28;20950;-73
2023/01/17 12:07:55;;;;;;;0.80;0.70;;;9.00;99.90;;;;;;4973014;28;20424;-72
2023/01/17 12:10:29;;;;;;;1.80;0.70;;;8.60;99.90;;;;;;4972682;28;20411;-73
2023/01/17 12:16:31;;;;;;;1.73;1.10;;;8.50;99.90;;;;;;4972535;28;20407;-72
2023/01/17 12:19:18;;;;;;;2.40;0.80;;;8.60;99.90;;;;;;4972923;28;20465;-73
2023/01/17 12:21:59;;;;;;;2.50;0.80;;;8.40;99.90;;;;;;4972677;28;20430;-73
2023/01/17 12:24:46;;;;;;;2.40;1.20;;;8.50;99.90;;;;;;4972733;28;20429;-74
2023/01/17 12:27:24;;;;;;;8.50;2.23;;;8.20;99.90;;;;;;4972324;28;20507;-73
2023/01/17 12:30:17;;;;;;;10.30;1.33;;;7.90;99.90;;;;;;4972851;28;20417;-72
2023/01/17 12:33:14;;;;;;;5.23;1.93;;;7.60;99.90;;;;;;4972296;28;20456;-73
2023/01/17 12:35:55;;;;;;;10.17;3.17;;;7.30;99.90;;;;;;4972711;28;20407;-73
2023/01/17 12:38:31;;;;;;;6.00;1.73;;;7.20;99.90;;;;;;4972364;28;20509;-73
2023/01/17 12:41:10;;;;;;;11.43;2.30;;;7.00;99.90;;;;;;4972709;28;20479;-72
2023/01/17 12:43:39;;;;;;;2.23;1.00;;;7.00;99.90;;;;;;4973834;28;20413;-73
2023/01/17 12:46:28;;;;;;;2.00;0.70;;;7.00;99.90;;;;;;4974092;28;20792;-72
2023/01/17 12:49:03;;;;;;;3.13;0.70;;;6.70;99.90;;;;;;4972788;28;20417;-73
2023/01/17 12:51:35;;;;;;;3.80;1.80;;;6.70;99.90;;;;;;4972420;28;20604;-72
2023/01/17 12:54:09;;;;;;;9.00;4.40;;;6.50;99.90;;;;;;4955322;28;20417;-73
2023/01/17 12:56:52;;;;;;;2.23;1.20;;;6.40;99.90;;;;;;4972888;28;20452;-72
2023/01/17 12:59:28;;;;;;;30.17;10.33;;;6.20;99.90;;;;;;4954933;28;20422;-73
2023/01/17 13:01:57;;;;;;;12.90;4.50;;;6.10;99.90;;;;;;4972283;28;20437;-73
2023/01/17 13:04:52;;;;;;;16.83;5.50;;;6.00;99.90;;;;;;4972175;28;20424;-73
2023/01/17 13:08:00;;;;;;;4.77;2.53;;;6.00;99.90;;;;;;4971943;28;20432;-73
2023/01/17 13:10:39;;;;;;;1.90;1.17;;;6.00;99.90;;;;;;4951449;28;20427;-74
2023/01/17 13:13:21;;;;;;;6.57;1.87;;;5.90;99.90;;;;;;4971974;28;20414;-72
2023/01/17 13:16:08;;;;;;;2.70;1.40;;;5.90;99.90;;;;;;4954923;28;20451;-73
2023/01/17 13:18:35;;;;;;;2.80;1.50;;;5.80;99.90;;;;;;4965046;28;20436;-73
2023/01/17 13:21:30;;;;;;;3.10;1.30;;;5.80;99.90;;;;;;4972161;28;20427;-72
2023/01/17 13:24:00;;;;;;;2.87;1.57;;;5.70;99.90;;;;;;4972444;28;20425;-72
2023/01/17 13:26:44;;;;;;;1.23;0.90;;;5.60;99.90;;;;;;4972210;28;21225;-74
2023/01/17 13:29:42;;;;;;;3.63;1.07;;;5.60;99.90;;;;;;4973802;28;20473;-73
2023/01/17 13:32:44;;;;;;;1.70;1.30;;;5.60;99.90;;;;;;4975018;28;20606;-72
2023/01/17 13:35:23;;;;;;;6.90;1.60;;;5.50;99.90;;;;;;4958159;28;20425;-73
2023/01/17 13:38:15;;;;;;;5.73;1.90;;;5.40;99.90;;;;;;4975623;28;20468;-74
2023/01/17 13:40:53;;;;;;;3.60;1.73;;;5.40;99.90;;;;;;4975565;28;20496;-74
2023/01/17 13:43:24;;;;;;;4.83;1.77;;;5.30;99.90;;;;;;4974857;28;20480;-73
2023/01/17 13:45:56;;;;;;;5.13;1.63;;;5.30;99.90;;;;;;4975593;28;20415;-74
2023/01/17 13:48:22;;;;;;;3.10;0.90;;;5.30;99.90;;;;;;4975225;28;20417;-73
2023/01/17 13:50:54;;;;;;;4.50;1.20;;;5.30;99.90;;;;;;4975274;28;20472;-73
2023/01/17 13:53:26;;;;;;;7.47;1.63;;;5.30;99.90;;;;;;4974830;28;20190;-73
2023/01/17 13:56:01;;;;;;;8.97;1.23;;;5.20;99.90;;;;;;4975595;28;20413;-73
2023/01/17 13:58:56;;;;;;;5.47;1.77;;;5.20;99.90;;;;;;4974932;28;20415;-73
2023/01/17 14:01:22;;;;;;;11.27;3.73;;;5.20;99.90;;;;;;4974754;28;20432;-73
2023/01/17 14:03:50;;;;;;;3.27;2.47;;;5.10;99.90;;;;;;4976270;28;20416;-73
2023/01/17 14:06:34;;;;;;;1.30;1.03;;;5.10;99.90;;;;;;4974954;28;20231;-73
2023/01/17 14:09:11;;;;;;;3.00;1.00;;;5.10;99.90;;;;;;4975154;28;20413;-72
2023/01/17 14:11:55;;;;;;;1.33;0.70;;;5.20;99.90;;;;;;4975797;28;20429;-72
2023/01/17 14:14:46;;;;;;;1.53;0.83;;;5.20;99.90;;;;;;4975859;28;20781;-73
2023/01/17 14:17:15;;;;;;;2.17;1.10;;;5.20;99.90;;;;;;4969913;28;20469;-72
2023/01/17 14:19:41;;;;;;;3.43;1.53;;;5.20;99.90;;;;;;4974847;28;20431;-72
2023/01/17 14:22:19;;;;;;;22.00;7.00;;;5.10;99.90;;;;;;4974947;28;21028;-72
2023/01/17 14:25:01;;;;;;;19.30;7.70;;;5.00;99.90;;;;;;4975231;28;20414;-73
2023/01/17 14:27:30;;;;;;;3.10;1.60;;;5.00;99.90;;;;;;4974475;28;20479;-74
2023/01/17 14:29:57;;;;;;;7.80;1.57;;;5.00;99.90;;;;;;4974388;28;20415;-73
2023/01/17 14:32:26;;;;;;;1.93;1.07;;;5.00;99.90;;;;;;4973970;28;20449;-71
2023/01/17 14:34:52;;;;;;;1.30;0.80;;;5.00;99.90;;;;;;4974379;28;20420;-72
2023/01/17 14:37:32;;;;;;;13.13;3.80;;;5.00;99.90;;;;;;4974113;28;20460;-73
2023/01/17 14:39:59;;;;;;;6.90;3.13;;;4.90;99.90;;;;;;4974448;28;20411;-73
2023/01/17 14:42:28;;;;;;;4.90;2.03;;;4.90;99.90;;;;;;4973848;28;20463;-72
2023/01/17 14:45:02;;;;;;;6.03;1.80;;;4.80;99.90;;;;;;4974275;28;20442;-73
2023/01/17 14:47:35;;;;;;;8.13;2.53;;;4.80;99.90;;;;;;4974114;28;20409;-74
2023/01/17 14:50:17;;;;;;;6.60;1.70;;;4.80;99.90;;;;;;4974253;28;20488;-73
2023/01/17 14:52:46;;;;;;;4.60;1.57;;;4.80;99.90;;;;;;4973826;28;20432;-73
2023/01/17 14:55:18;;;;;;;2.60;1.30;;;4.80;99.90;;;;;;4973955;28;20846;-73
2023/01/17 14:57:57;;;;;;;3.93;1.50;;;4.80;99.90;;;;;;4973905;28;20539;-73
2023/01/17 15:00:24;;;;;;;7.20;2.43;;;4.70;99.90;;;;;;4973837;28;20450;-73
2023/01/17 15:02:52;;;;;;;4.03;1.37;;;4.70;99.90;;;;;;4973570;28;20432;-73
2023/01/17 15:05:23;;;;;;;4.90;1.70;;;4.70;99.90;;;;;;4974121;28;20409;-73
2023/01/17 15:07:51;;;;;;;2.97;1.50;;;4.70;99.90;;;;;;4973860;28;20414;-73
2023/01/17 15:10:30;;;;;;;3.77;2.00;;;4.60;99.90;;;;;;4973731;28;20440;-74
2023/01/17 15:12:57;;;;;;;4.23;2.10;;;4.60;99.90;;;;;;4973310;28;20435;-73
2023/01/17 15:15:34;;;;;;;3.23;1.67;;;4.60;99.90;;;;;;4973529;28;20412;-72
2023/01/17 15:18:20;;;;;;;5.80;2.03;;;4.60;99.90;;;;;;4973751;28;20816;-73
2023/01/17 15:20:54;;;;;;;4.20;2.20;;;4.50;99.90;;;;;;4973441;28;20902;-73
2023/01/17 15:23:22;;;;;;;5.70;1.97;;;4.40;99.90;;;;;;4973214;28;20411;-73
2023/01/17 15:25:52;;;;;;;5.50;1.70;;;4.50;99.90;;;;;;4972622;28;20507;-73
2023/01/17 15:28:18;;;;;;;4.20;1.87;;;4.40;99.90;;;;;;4973284;28;20425;-73
2023/01/17 15:31:02;;;;;;;7.47;3.03;;;4.40;99.90;;;;;;4973127;28;20500;-71
2023/01/17 15:33:33;;;;;;;5.13;2.30;;;4.40;99.90;;;;;;4973089;28;20185;-70
2023/01/17 15:36:01;;;;;;;5.47;2.20;;;4.40;99.90;;;;;;4973331;28;20933;-72
2023/01/17 15:38:27;;;;;;;4.03;2.20;;;4.30;99.90;;;;;;4973155;28;20495;-73
2023/01/17 15:40:53;;;;;;;10.07;1.80;;;4.30;99.90;;;;;;4973194;28;21109;-73
2023/01/17 15:43:23;;;;;;;10.30;3.00;;;4.20;99.90;;;;;;4972599;28;20845;-73
2023/01/17 15:45:58;;;;;;;7.33;2.57;;;4.20;99.90;;;;;;4974183;28;20224;-74
2023/01/17 15:48:35;;;;;;;8.37;2.80;;;4.20;99.90;;;;;;4972746;28;20425;-73
2023/01/17 15:51:00;;;;;;;7.80;2.47;;;4.10;99.90;;;;;;4972357;28;20489;-72
2023/01/17 15:53:32;;;;;;;8.37;2.70;;;4.20;99.90;;;;;;4972636;28;20927;-73
2023/01/17 15:55:58;;;;;;;7.40;2.80;;;4.20;99.90;;;;;;4973020;28;20187;-72
2023/01/17 15:58:27;;;;;;;7.43;3.60;;;4.20;99.90;;;;;;4972891;28;20967;-72
2023/01/17 16:00:53;;;;;;;10.40;3.03;;;4.20;99.90;;;;;;4972730;28;20903;-74
2023/01/17 16:03:18;;;;;;;4.63;3.13;;;4.20;99.90;;;;;;4972603;28;20421;-73
2023/01/17 16:05:45;;;;;;;9.40;3.30;;;4.20;99.90;;;;;;4972863;28;20925;-73
2023/01/17 16:08:10;;;;;;;11.03;2.80;;;4.20;99.90;;;;;;4972617;28;20172;-73
2023/01/17 16:10:37;;;;;;;11.20;4.27;;;4.20;99.90;;;;;;4972842;28;20420;-73
2023/01/17 16:13:05;;;;;;;7.07;3.50;;;4.10;99.90;;;;;;4972525;28;20258;-74